KTCM

McChord Field

Airport
ICAO code
KTCM
Summary
ICAO Region
NAM
ICAO Territory
Location

Lakewood, Washington,

Coordinates
47° 8' 4" N , 122° 29' 5" W
KCC
Airport LOS
Parallel Runway Operation
Metar
Observation
KTCM 070755Z AUTO 00000KT 10SM CLR 10/10 A3014 RMK AO2 SLP210 T01040104 402230071 $
Station
Tacoma / McChord Air Force Base
Date/Time
2022-10-07 07:55:00
Wind direction
Wind speed
00 kts
Lowest cloud amount
n/a
Temperature
10.4°C
Dew point
10.4°C
Humidity
100%
Weather condition
n/a

Description

McChord Field, formerly known as McChord Air Force Base, is a United States Air Force facility located in Pierce County, Washington, approximately 10 km southwest of Lakewood. McChord AFB was consolidated with United States Army Fort Lewis in February 2010 to become part of the Joint Base Lewis-McChord complex.

Climatology

Dry-summer subtropical ”Mediterranean" climate (Köppen climate classification Csb) - characterized by warm, dry summers and mild winters.

Runways

Designator Length Width Surface Rops
160/340 914 18 ASPH No/No
16/34 3081 46 ASP Yes/Yes

Airport map

Aerial View

SKYbrary Partners:

Safety knowledge contributed by: